Time;durP1;ratioP1;P1;durP2;ratioP2;P2;SDS_P1;SDS_P2;PMS_P1;PMS_P2;Temp;Humidity;BMP_temperature;BMP_pressure;BME280_temperature;BME280_humidity;BME280_pressure;Samples;Min_cycle;Max_cycle;Signal;HPM_P1;HPM_P2
2023/12/31 00:00:00;;;;;;;6.53;2.53;;;8.10;99.90;;;;;;5052262;28;20413;-78
2023/12/31 00:02:25;;;;;;;4.97;2.50;;;8.10;99.90;;;;;;5062687;28;20037;-78
2023/12/31 00:04:51;;;;;;;6.30;2.60;;;8.10;99.90;;;;;;5056040;28;20048;-78
2023/12/31 00:07:17;;;;;;;7.05;2.38;;;8.80;99.90;;;;;;5071296;28;20085;-79
2023/12/31 00:09:42;;;;;;;9.77;3.00;;;8.00;99.90;;;;;;5070823;28;20145;-78
2023/12/31 00:12:08;;;;;;;4.57;2.65;;;8.00;99.90;;;;;;5067075;28;20052;-78
2023/12/31 00:14:34;;;;;;;5.18;2.17;;;8.00;99.90;;;;;;5054293;28;20049;-79
2023/12/31 00:17:00;;;;;;;5.47;2.60;;;8.00;99.90;;;;;;5067341;28;20036;-77
2023/12/31 00:19:26;;;;;;;4.55;2.22;;;8.00;99.90;;;;;;5041048;28;20178;-84
2023/12/31 00:21:51;;;;;;;5.43;2.50;;;8.00;99.90;;;;;;5066877;28;20426;-78
2023/12/31 00:24:17;;;;;;;8.38;2.58;;;8.00;99.90;;;;;;5071960;28;20048;-77
2023/12/31 00:26:43;;;;;;;4.93;2.28;;;8.00;99.90;;;;;;5072644;28;20047;-78
2023/12/31 00:29:08;;;;;;;10.00;2.90;;;8.00;99.90;;;;;;5072812;28;20427;-77
2023/12/31 00:31:34;;;;;;;5.88;2.63;;;8.00;99.90;;;;;;5072371;28;20041;-77
2023/12/31 00:33:59;;;;;;;5.57;2.58;;;8.00;99.90;;;;;;5055770;28;20419;-77
2023/12/31 00:36:25;;;;;;;8.57;2.78;;;8.00;99.90;;;;;;5072489;28;20070;-78
2023/12/31 00:38:52;;;;;;;4.75;1.80;;;8.10;99.90;;;;;;5072624;28;20037;-78
2023/12/31 00:41:18;;;;;;;6.00;2.45;;;8.00;99.90;;;;;;5071024;28;20502;-77
2023/12/31 00:43:44;;;;;;;5.47;2.35;;;8.00;99.90;;;;;;5072263;28;20048;-77
2023/12/31 00:46:12;;;;;;;5.60;1.92;;;8.10;99.90;;;;;;5071942;28;20051;-78
2023/12/31 00:48:38;;;;;;;7.43;2.42;;;8.10;99.90;;;;;;5067191;28;20048;-77
2023/12/31 00:51:04;;;;;;;5.25;1.98;;;8.10;99.90;;;;;;5052091;28;20064;-77
2023/12/31 00:53:29;;;;;;;3.65;1.75;;;8.10;99.90;;;;;;5051831;28;20041;-78
2023/12/31 00:55:55;;;;;;;6.85;2.00;;;8.30;99.90;;;;;;5066774;28;20040;-77
2023/12/31 00:58:20;;;;;;;4.25;1.83;;;8.20;99.90;;;;;;5072055;28;20052;-77
2023/12/31 01:00:46;;;;;;;3.78;1.95;;;8.10;99.90;;;;;;5070369;28;20040;-77
2023/12/31 01:03:12;;;;;;;5.43;2.10;;;8.00;99.90;;;;;;5051955;28;20104;-77
2023/12/31 01:05:38;;;;;;;5.57;2.20;;;8.00;99.90;;;;;;5051909;28;20045;-78
2023/12/31 01:08:04;;;;;;;4.90;1.92;;;8.00;99.90;;;;;;5051751;28;20672;-77
2023/12/31 01:10:29;;;;;;;4.68;1.90;;;8.00;99.90;;;;;;5051621;28;20045;-78
2023/12/31 01:12:55;;;;;;;6.85;2.13;;;8.00;99.90;;;;;;5051849;28;20040;-78
2023/12/31 01:15:24;;;;;;;4.38;1.90;;;8.00;99.90;;;;;;5053002;28;20052;-77
2023/12/31 01:17:49;;;;;;;5.05;2.00;;;8.00;99.90;;;;;;5052107;28;20396;-77
2023/12/31 01:20:15;;;;;;;6.15;1.80;;;8.00;99.90;;;;;;5066283;28;20047;-77
2023/12/31 01:22:42;;;;;;;6.30;1.67;;;8.00;99.90;;;;;;5055689;28;20091;-77
2023/12/31 01:25:08;;;;;;;4.45;1.85;;;8.00;99.90;;;;;;5034951;28;20049;-78
2023/12/31 01:27:34;;;;;;;4.38;1.95;;;8.00;99.90;;;;;;5069476;28;20051;-78
2023/12/31 01:29:59;;;;;;;3.88;1.63;;;8.00;99.90;;;;;;5071873;28;20403;-78
2023/12/31 01:32:25;;;;;;;3.65;1.65;;;8.00;99.90;;;;;;5060184;28;20048;-77
2023/12/31 01:34:53;;;;;;;3.60;1.83;;;8.20;99.90;;;;;;5071495;28;20118;-77
2023/12/31 01:37:19;;;;;;;6.18;1.90;;;8.10;99.90;;;;;;5071530;28;20058;-77
2023/12/31 01:39:45;;;;;;;4.47;1.80;;;8.00;99.90;;;;;;5071879;28;20128;-77
2023/12/31 01:42:10;;;;;;;9.13;2.00;;;7.90;99.90;;;;;;5060107;28;20102;-78
2023/12/31 01:44:36;;;;;;;4.15;1.48;;;8.40;99.90;;;;;;5051483;28;20059;-77
2023/12/31 01:47:02;;;;;;;3.95;1.65;;;7.90;99.90;;;;;;5051890;28;20049;-78
2023/12/31 01:49:30;;;;;;;4.70;2.00;;;7.90;99.90;;;;;;5068884;28;20048;-78
2023/12/31 01:51:56;;;;;;;4.63;1.48;;;7.90;99.90;;;;;;5071549;28;20492;-77
2023/12/31 01:54:22;;;;;;;5.63;2.05;;;7.90;99.90;;;;;;5071619;28;20052;-77
2023/12/31 01:56:51;;;;;;;4.20;1.88;;;7.90;99.90;;;;;;5054983;28;20484;-77
2023/12/31 01:59:17;;;;;;;11.80;2.60;;;7.90;99.90;;;;;;5075379;28;20051;-77
2023/12/31 02:01:45;;;;;;;5.40;1.58;;;7.90;99.90;;;;;;5062972;28;20049;-78
2023/12/31 02:04:11;;;;;;;4.88;1.88;;;8.60;99.90;;;;;;5074981;28;20127;-78
2023/12/31 02:06:38;;;;;;;6.18;1.73;;;7.90;99.90;;;;;;5075156;28;20126;-77
2023/12/31 02:09:06;;;;;;;4.28;1.73;;;7.90;99.90;;;;;;5069619;28;20469;-78
2023/12/31 02:11:32;;;;;;;3.55;1.60;;;7.80;99.90;;;;;;5038571;28;20103;-78
2023/12/31 02:13:58;;;;;;;4.65;1.88;;;7.90;99.90;;;;;;5055193;28;20052;-78
2023/12/31 02:16:25;;;;;;;3.97;1.55;;;7.80;99.90;;;;;;5055029;28;20052;-77
2023/12/31 02:18:50;;;;;;;4.93;1.50;;;7.80;99.90;;;;;;5057657;28;20048;-78
2023/12/31 02:21:16;;;;;;;5.07;1.60;;;7.90;99.90;;;;;;5071942;28;20052;-78
2023/12/31 02:23:43;;;;;;;2.75;1.20;;;8.20;99.90;;;;;;5054619;28;20146;-77
2023/12/31 02:26:12;;;;;;;4.47;1.73;;;7.90;99.90;;;;;;5068029;28;20467;-77
2023/12/31 02:28:39;;;;;;;3.13;1.42;;;7.80;99.90;;;;;;5074796;28;20531;-77
2023/12/31 02:31:05;;;;;;;4.78;1.70;;;8.10;99.90;;;;;;5069596;28;20052;-78
2023/12/31 02:33:31;;;;;;;6.40;2.05;;;7.80;99.90;;;;;;5054687;28;20049;-77
2023/12/31 02:35:56;;;;;;;7.05;2.03;;;7.80;99.90;;;;;;5054912;28;20045;-77
2023/12/31 02:38:22;;;;;;;3.88;1.60;;;7.80;99.90;;;;;;5073681;28;20051;-77
2023/12/31 02:40:48;;;;;;;5.22;2.05;;;7.80;99.90;;;;;;5074567;28;20085;-77
2023/12/31 02:43:13;;;;;;;5.13;1.88;;;7.80;99.90;;;;;;5068791;28;20131;-77
2023/12/31 02:45:39;;;;;;;4.68;1.75;;;7.80;99.90;;;;;;5054499;28;20061;-77
2023/12/31 02:48:06;;;;;;;4.53;1.80;;;8.00;99.90;;;;;;5054518;28;20045;-77
2023/12/31 02:50:32;;;;;;;6.47;2.05;;;7.80;99.90;;;;;;5054919;28;20667;-78
2023/12/31 02:52:57;;;;;;;4.72;1.80;;;7.80;99.90;;;;;;5074615;28;20049;-77
2023/12/31 02:55:23;;;;;;;6.03;1.75;;;7.80;99.90;;;;;;5074062;28;20044;-78
2023/12/31 02:57:49;;;;;;;6.72;1.83;;;7.80;99.90;;;;;;5074627;28;20055;-77
2023/12/31 03:00:15;;;;;;;5.03;1.77;;;7.80;99.90;;;;;;5073937;28;20135;-78
2023/12/31 03:02:41;;;;;;;5.28;1.67;;;7.70;99.90;;;;;;5054583;28;20044;-77
2023/12/31 03:05:07;;;;;;;4.38;1.70;;;7.70;99.90;;;;;;5049179;28;20114;-78
2023/12/31 03:07:34;;;;;;;3.97;1.40;;;7.70;99.90;;;;;;5074062;28;20128;-77
2023/12/31 03:09:59;;;;;;;5.95;1.52;;;7.70;99.90;;;;;;5073613;28;20044;-77
2023/12/31 03:12:25;;;;;;;5.53;1.70;;;7.70;99.90;;;;;;5072826;28;20094;-77
2023/12/31 03:14:51;;;;;;;5.07;2.13;;;7.80;99.90;;;;;;5073799;28;20052;-77
2023/12/31 03:17:16;;;;;;;5.78;1.45;;;7.70;99.90;;;;;;5073437;28;20053;-78
2023/12/31 03:19:42;;;;;;;4.10;1.55;;;7.70;99.90;;;;;;5073436;28;20072;-78
2023/12/31 03:22:08;;;;;;;2.20;1.05;;;7.70;99.90;;;;;;5067751;28;20048;-78
2023/12/31 03:24:33;;;;;;;6.60;1.90;;;7.70;99.90;;;;;;5073222;28;20037;-77
2023/12/31 03:26:59;;;;;;;4.25;1.20;;;7.70;99.90;;;;;;5073213;28;20131;-77
2023/12/31 03:29:26;;;;;;;3.85;1.40;;;8.00;99.90;;;;;;5073346;28;20403;-78
2023/12/31 03:31:52;;;;;;;2.58;1.33;;;7.60;99.90;;;;;;5073296;28;20151;-77
2023/12/31 03:34:17;;;;;;;4.82;1.25;;;7.60;99.90;;;;;;5073054;28;20084;-77
2023/12/31 03:36:43;;;;;;;3.42;1.42;;;7.60;99.90;;;;;;5064509;28;20482;-77
2023/12/31 03:39:09;;;;;;;3.45;1.30;;;7.60;99.90;;;;;;5053447;28;20040;-77
2023/12/31 03:41:35;;;;;;;4.40;1.13;;;7.60;99.90;;;;;;5052970;28;20041;-77
2023/12/31 03:44:00;;;;;;;5.05;1.83;;;7.50;99.90;;;;;;5053274;28;20056;-77
2023/12/31 03:46:26;;;;;;;2.65;1.10;;;7.50;99.90;;;;;;5053723;28;20048;-79
2023/12/31 03:48:52;;;;;;;2.97;1.30;;;7.50;99.90;;;;;;5052985;28;20047;-77
2023/12/31 03:51:17;;;;;;;3.70;1.42;;;7.40;99.90;;;;;;5063015;28;20070;-78
2023/12/31 03:53:43;;;;;;;4.03;1.50;;;7.50;99.90;;;;;;5067499;28;20059;-78
2023/12/31 03:56:09;;;;;;;4.25;1.63;;;7.40;99.90;;;;;;5053442;28;20060;-77
2023/12/31 03:58:35;;;;;;;6.88;2.00;;;7.40;99.90;;;;;;5062319;28;20060;-78
2023/12/31 04:01:00;;;;;;;4.10;1.77;;;7.40;99.90;;;;;;5053057;28;20041;-77
2023/12/31 04:03:26;;;;;;;4.30;1.80;;;7.40;99.90;;;;;;5057893;28;20075;-77
2023/12/31 04:05:52;;;;;;;3.65;1.70;;;7.40;99.90;;;;;;5073241;28;20040;-78
2023/12/31 04:08:18;;;;;;;6.78;1.58;;;7.40;99.90;;;;;;5063693;28;20085;-77
2023/12/31 04:10:44;;;;;;;3.72;1.42;;;7.70;99.90;;;;;;5036639;28;20049;-78
2023/12/31 04:13:09;;;;;;;4.25;1.38;;;7.60;99.90;;;;;;5054385;28;20059;-78
2023/12/31 04:15:35;;;;;;;3.75;1.40;;;7.60;99.90;;;;;;5052681;28;20048;-77
2023/12/31 04:18:01;;;;;;;4.50;1.70;;;7.30;99.90;;;;;;5053317;28;20053;-77
2023/12/31 04:20:26;;;;;;;6.72;1.70;;;7.30;99.90;;;;;;5051815;28;20203;-77
2023/12/31 04:22:52;;;;;;;4.00;1.48;;;7.30;99.90;;;;;;5055732;28;20040;-79
2023/12/31 04:25:18;;;;;;;4.05;1.73;;;7.50;99.90;;;;;;5071061;28;20067;-78
2023/12/31 04:27:44;;;;;;;3.90;1.65;;;7.50;99.90;;;;;;5056282;28;20499;-77
2023/12/31 04:30:12;;;;;;;4.70;1.50;;;7.30;99.90;;;;;;5071177;28;20082;-77
2023/12/31 04:32:38;;;;;;;4.15;1.80;;;7.30;99.90;;;;;;5072015;28;20550;-77
2023/12/31 04:35:04;;;;;;;3.55;1.48;;;7.30;99.90;;;;;;5072482;28;20052;-78
2023/12/31 04:37:30;;;;;;;3.13;1.60;;;7.30;99.90;;;;;;5071532;28;20048;-77
2023/12/31 04:39:57;;;;;;;5.80;1.90;;;7.30;99.90;;;;;;5060365;28;20461;-77
2023/12/31 04:42:22;;;;;;;5.15;1.50;;;7.60;99.90;;;;;;5035338;28;20056;-78
2023/12/31 04:44:48;;;;;;;4.97;1.65;;;7.30;99.90;;;;;;5051977;28;20048;-77
2023/12/31 04:47:14;;;;;;;5.22;2.47;;;7.30;99.90;;;;;;5035702;28;20041;-78
2023/12/31 04:49:40;;;;;;;5.05;1.70;;;7.30;99.90;;;;;;5068882;28;20044;-77
2023/12/31 04:52:06;;;;;;;4.15;2.03;;;7.80;99.90;;;;;;5072052;28;20048;-77
2023/12/31 04:54:32;;;;;;;3.70;1.83;;;7.30;99.90;;;;;;5063416;28;20098;-78
2023/12/31 04:56:57;;;;;;;4.88;1.50;;;7.40;99.90;;;;;;5035768;28;20098;-78
2023/12/31 04:59:23;;;;;;;4.55;1.50;;;7.30;99.90;;;;;;5052386;28;20048;-78
2023/12/31 05:01:50;;;;;;;4.43;1.58;;;7.30;99.90;;;;;;5064537;28;20123;-79
2023/12/31 05:04:15;;;;;;;4.95;1.75;;;7.40;99.90;;;;;;5063477;28;20412;-78
2023/12/31 05:06:41;;;;;;;3.88;1.73;;;7.30;99.90;;;;;;5051826;28;20041;-78
2023/12/31 05:09:08;;;;;;;6.40;2.05;;;7.40;99.90;;;;;;5059830;28;20483;-77
2023/12/31 05:11:35;;;;;;;4.43;1.58;;;7.50;99.90;;;;;;5062638;28;20041;-78
2023/12/31 05:14:00;;;;;;;6.38;1.95;;;7.60;99.90;;;;;;5035484;28;20037;-77
2023/12/31 05:16:31;;;;;;;5.15;1.65;;;7.40;99.90;;;;;;5051893;28;20190;-77
2023/12/31 05:18:57;;;;;;;5.50;1.70;;;7.40;99.90;;;;;;5052138;28;20045;-78
2023/12/31 05:21:23;;;;;;;3.58;1.55;;;7.40;99.90;;;;;;5051443;28;20508;-77
2023/12/31 05:23:49;;;;;;;5.97;1.73;;;7.40;99.90;;;;;;5059161;28;20045;-78
2023/12/31 05:26:15;;;;;;;3.67;1.80;;;7.90;99.90;;;;;;5071356;28;20105;-78
2023/12/31 05:28:40;;;;;;;3.85;1.77;;;7.40;99.90;;;;;;5071964;28;20480;-78
2023/12/31 05:31:06;;;;;;;5.18;1.65;;;7.40;99.90;;;;;;5055764;28;20052;-78
2023/12/31 05:33:32;;;;;;;5.88;1.85;;;7.50;99.90;;;;;;5069590;28;20502;-78
2023/12/31 05:35:57;;;;;;;5.20;1.88;;;7.40;99.90;;;;;;5051805;28;20128;-78
2023/12/31 05:38:23;;;;;;;3.92;1.70;;;7.40;99.90;;;;;;5051884;28;20060;-78
2023/12/31 05:40:49;;;;;;;4.88;2.08;;;7.50;99.90;;;;;;5052487;28;20050;-78
2023/12/31 05:43:14;;;;;;;5.60;2.30;;;7.50;99.90;;;;;;5051433;28;20127;-78
2023/12/31 05:45:40;;;;;;;6.18;1.75;;;7.40;99.90;;;;;;5059896;28;20056;-78
2023/12/31 05:48:06;;;;;;;5.00;2.17;;;7.40;99.90;;;;;;5051867;28;20350;-77
2023/12/31 05:50:32;;;;;;;5.50;2.10;;;7.40;99.90;;;;;;5065708;28;20411;-78
2023/12/31 05:52:57;;;;;;;4.40;2.10;;;7.40;99.90;;;;;;5064248;28;20182;-77
2023/12/31 05:55:23;;;;;;;7.20;1.95;;;7.40;99.90;;;;;;5060823;28;20048;-78
2023/12/31 05:57:50;;;;;;;4.55;1.88;;;7.40;99.90;;;;;;5051411;28;20045;-77
2023/12/31 06:00:16;;;;;;;5.28;2.30;;;7.40;99.90;;;;;;5044084;28;20489;-77
2023/12/31 06:02:42;;;;;;;5.47;2.15;;;7.40;99.90;;;;;;5035573;28;20087;-77
2023/12/31 06:05:09;;;;;;;6.10;2.60;;;7.40;99.90;;;;;;5035066;28;20037;-77
2023/12/31 06:07:35;;;;;;;6.40;2.38;;;7.40;99.90;;;;;;5070773;28;20072;-78
2023/12/31 06:10:01;;;;;;;6.85;2.58;;;7.50;99.90;;;;;;5063230;28;20511;-78
2023/12/31 06:12:28;;;;;;;4.90;2.15;;;7.40;99.90;;;;;;5054140;28;20052;-78
2023/12/31 06:14:54;;;;;;;6.35;2.53;;;7.70;99.90;;;;;;5051267;28;20139;-78
2023/12/31 06:17:22;;;;;;;4.78;2.13;;;7.50;99.90;;;;;;5052560;28;20067;-77
2023/12/31 06:19:48;;;;;;;5.90;1.98;;;7.60;99.90;;;;;;5034327;28;20524;-77
2023/12/31 06:22:14;;;;;;;7.18;2.08;;;7.50;99.90;;;;;;5065660;28;20120;-78
2023/12/31 06:24:39;;;;;;;5.10;2.05;;;7.50;99.90;;;;;;5062852;28;20084;-78
2023/12/31 06:27:05;;;;;;;5.63;2.60;;;7.50;99.90;;;;;;5051057;28;20072;-77
2023/12/31 06:29:30;;;;;;;5.05;2.25;;;7.50;99.90;;;;;;5054917;28;20377;-77
2023/12/31 06:31:56;;;;;;;5.88;2.38;;;7.60;99.90;;;;;;5059235;28;20083;-78
2023/12/31 06:34:22;;;;;;;6.70;2.20;;;7.20;99.90;;;;;;5053129;28;20079;-77
2023/12/31 06:36:48;;;;;;;4.82;2.10;;;7.50;99.90;;;;;;5070993;28;20123;-78
2023/12/31 06:39:13;;;;;;;5.20;2.10;;;7.50;99.90;;;;;;5062907;28;20473;-78
2023/12/31 06:41:39;;;;;;;4.03;2.05;;;7.50;99.90;;;;;;5061889;28;20060;-77
2023/12/31 06:44:04;;;;;;;4.53;2.00;;;7.90;99.90;;;;;;5061588;28;20049;-78
2023/12/31 06:46:33;;;;;;;4.00;2.05;;;7.50;99.90;;;;;;5054445;28;20503;-77
2023/12/31 06:48:59;;;;;;;4.20;1.80;;;7.50;99.90;;;;;;5054536;28;20045;-77
2023/12/31 06:51:24;;;;;;;5.45;2.08;;;7.50;99.90;;;;;;5054492;28;20048;-77
2023/12/31 06:53:50;;;;;;;5.55;2.83;;;8.00;99.90;;;;;;5054597;28;20052;-78
2023/12/31 06:56:18;;;;;;;4.07;2.10;;;7.50;99.90;;;;;;5037935;28;20390;-77
2023/12/31 06:58:44;;;;;;;3.53;1.88;;;7.80;99.90;;;;;;5072757;28;20135;-77
2023/12/31 07:01:10;;;;;;;4.13;2.03;;;7.60;99.90;;;;;;5069637;28;20124;-77
2023/12/31 07:03:35;;;;;;;3.78;1.98;;;7.60;99.90;;;;;;5054249;28;20131;-77
2023/12/31 07:06:01;;;;;;;3.60;1.80;;;8.00;99.90;;;;;;5070934;28;20057;-78
2023/12/31 07:08:27;;;;;;;5.07;2.30;;;7.70;99.90;;;;;;5074268;28;20129;-77
2023/12/31 07:10:54;;;;;;;5.00;1.98;;;7.70;99.90;;;;;;5062153;28;20095;-78
2023/12/31 07:13:19;;;;;;;7.63;2.47;;;7.70;99.90;;;;;;5039638;28;20107;-78
2023/12/31 07:15:45;;;;;;;4.82;2.00;;;7.70;99.90;;;;;;5057570;28;20044;-77
2023/12/31 07:18:11;;;;;;;3.50;1.70;;;7.70;99.90;;;;;;5067260;28;20123;-78
2023/12/31 07:20:37;;;;;;;3.58;1.90;;;7.70;99.90;;;;;;5066932;28;20128;-77
2023/12/31 07:23:03;;;;;;;5.45;2.20;;;7.70;99.90;;;;;;5055540;28;20057;-77
2023/12/31 07:25:30;;;;;;;3.88;2.00;;;7.70;99.90;;;;;;5053813;28;20068;-77
2023/12/31 07:27:56;;;;;;;4.68;2.38;;;7.80;99.90;;;;;;5073857;28;20468;-78
2023/12/31 07:30:23;;;;;;;4.40;2.17;;;7.90;99.90;;;;;;5073640;28;20044;-77
2023/12/31 07:32:48;;;;;;;4.45;1.60;;;7.80;99.90;;;;;;5071894;28;20101;-80
2023/12/31 07:35:14;;;;;;;3.60;1.90;;;7.90;99.90;;;;;;5058595;28;20444;-78
2023/12/31 07:37:40;;;;;;;5.05;2.30;;;7.80;99.90;;;;;;5063034;28;20481;-78
2023/12/31 07:40:07;;;;;;;5.53;2.20;;;8.00;99.90;;;;;;5063387;28;20120;-77
2023/12/31 07:42:35;;;;;;;4.03;1.80;;;7.80;99.90;;;;;;5065164;28;20048;-77
2023/12/31 07:45:01;;;;;;;4.55;2.22;;;7.90;99.90;;;;;;5068912;28;20146;-77
2023/12/31 07:47:27;;;;;;;4.30;1.95;;;7.90;99.90;;;;;;5053804;28;20490;-78
2023/12/31 07:49:52;;;;;;;3.88;2.00;;;7.90;99.90;;;;;;5066903;28;20045;-78
2023/12/31 07:52:18;;;;;;;4.32;2.33;;;7.90;99.90;;;;;;5056342;28;20037;-77
2023/12/31 07:54:44;;;;;;;5.95;2.30;;;8.00;99.90;;;;;;5053912;28;20051;-77
2023/12/31 07:57:10;;;;;;;4.65;2.17;;;8.00;99.90;;;;;;5053400;28;20053;-78
2023/12/31 07:59:35;;;;;;;5.68;2.10;;;8.00;99.90;;;;;;5073589;28;20463;-77
2023/12/31 08:02:03;;;;;;;3.95;1.75;;;8.00;99.90;;;;;;5067590;28;20380;-78
2023/12/31 08:04:28;;;;;;;3.90;2.13;;;8.00;99.90;;;;;;5053716;28;20080;-78
2023/12/31 08:06:54;;;;;;;5.07;2.10;;;8.10;99.90;;;;;;5056550;28;20393;-78
2023/12/31 08:09:23;;;;;;;5.45;2.17;;;8.20;99.90;;;;;;5054318;28;20044;-77
2023/12/31 08:11:48;;;;;;;5.45;1.80;;;8.20;99.90;;;;;;5065689;28;20083;-78
2023/12/31 08:14:14;;;;;;;7.90;2.15;;;8.10;99.90;;;;;;5062641;28;20040;-78
2023/12/31 08:16:40;;;;;;;3.80;1.60;;;8.10;99.90;;;;;;5055379;28;20082;-78
2023/12/31 08:19:05;;;;;;;4.45;1.92;;;8.10;99.90;;;;;;5053152;28;20053;-77
2023/12/31 08:21:31;;;;;;;4.72;2.17;;;8.10;99.90;;;;;;5060403;28;20131;-78
2023/12/31 08:23:57;;;;;;;5.40;2.08;;;8.10;99.90;;;;;;5060665;28;20037;-77
2023/12/31 08:26:23;;;;;;;3.85;1.90;;;8.10;99.90;;;;;;5058285;28;20083;-78
2023/12/31 08:28:49;;;;;;;5.75;2.05;;;8.10;99.90;;;;;;5059884;28;20472;-80
2023/12/31 08:31:15;;;;;;;4.78;2.25;;;8.10;99.90;;;;;;5054761;28;20041;-80
2023/12/31 08:33:42;;;;;;;4.82;1.73;;;8.20;99.90;;;;;;5071346;28;20120;-80
2023/12/31 08:36:08;;;;;;;4.70;1.92;;;8.10;99.90;;;;;;5046466;28;20048;-79
2023/12/31 08:38:34;;;;;;;4.38;1.75;;;8.10;99.90;;;;;;5029327;28;20053;-79
2023/12/31 08:41:00;;;;;;;5.05;2.05;;;8.10;99.90;;;;;;5056047;28;20571;-79
2023/12/31 08:43:25;;;;;;;4.50;1.92;;;8.40;99.90;;;;;;5068787;28;20041;-80
2023/12/31 08:45:51;;;;;;;3.42;1.65;;;8.20;99.90;;;;;;5051577;28;20060;-81
2023/12/31 08:48:21;;;;;;;4.55;1.80;;;8.20;99.90;;;;;;5051793;28;20120;-81
2023/12/31 08:50:47;;;;;;;4.50;1.83;;;8.20;99.90;;;;;;5058375;28;20087;-81
2023/12/31 08:53:12;;;;;;;4.00;1.73;;;8.20;99.90;;;;;;5071175;28;20415;-81
2023/12/31 08:55:38;;;;;;;3.90;1.77;;;8.20;99.90;;;;;;5056920;28;20079;-80
2023/12/31 08:58:04;;;;;;;6.47;2.00;;;8.20;99.90;;;;;;5053367;28;20073;-80
2023/12/31 09:00:32;;;;;;;5.20;1.75;;;8.30;99.90;;;;;;5052285;28;20102;-80
2023/12/31 09:02:59;;;;;;;4.50;2.00;;;8.30;99.90;;;;;;5060363;28;20055;-80
2023/12/31 09:05:24;;;;;;;4.80;1.60;;;8.30;99.90;;;;;;5059245;28;20420;-80
2023/12/31 09:07:50;;;;;;;4.20;1.75;;;8.30;99.90;;;;;;5052829;28;20049;-80
2023/12/31 09:10:16;;;;;;;3.33;1.60;;;8.40;99.90;;;;;;5053133;28;20182;-81
2023/12/31 09:12:41;;;;;;;3.75;1.80;;;8.40;99.90;;;;;;5053195;28;20036;-83
2023/12/31 09:15:07;;;;;;;4.03;2.00;;;8.40;99.90;;;;;;5052385;28;20115;-81
2023/12/31 09:17:35;;;;;;;5.60;1.70;;;8.40;99.90;;;;;;5051977;28;20067;-80
2023/12/31 09:20:05;;;;;;;5.03;2.00;;;8.40;99.90;;;;;;5051261;28;20064;-80
2023/12/31 09:22:31;;;;;;;5.10;1.88;;;8.40;99.90;;;;;;5054418;28;20436;-81
2023/12/31 09:24:57;;;;;;;3.08;1.40;;;8.40;99.90;;;;;;5056277;28;20049;-81
2023/12/31 09:27:22;;;;;;;4.45;1.85;;;8.40;99.90;;;;;;5056821;28;20498;-82
2023/12/31 09:29:48;;;;;;;4.32;1.80;;;8.80;99.90;;;;;;5070317;28;20041;-81
2023/12/31 09:32:14;;;;;;;5.50;1.75;;;8.50;99.90;;;;;;5063133;28;20043;-82
2023/12/31 09:34:39;;;;;;;4.15;1.80;;;8.50;99.90;;;;;;5051186;28;20484;-81
2023/12/31 09:37:05;;;;;;;3.65;1.80;;;8.70;99.90;;;;;;5034841;28;20071;-81
2023/12/31 09:39:31;;;;;;;4.88;2.03;;;8.80;99.90;;;;;;5051646;28;20056;-81
2023/12/31 09:42:01;;;;;;;4.15;1.70;;;8.50;99.90;;;;;;5054916;28;20456;-81
2023/12/31 09:44:27;;;;;;;4.70;1.90;;;8.50;99.90;;;;;;5055629;28;20053;-81
2023/12/31 09:47:08;;;;;;;4.13;1.75;;;8.70;99.90;;;;;;5069687;28;20732;-82
2023/12/31 09:49:35;;;;;;;4.43;1.80;;;8.50;99.90;;;;;;5051573;28;20052;-80
2023/12/31 09:52:05;;;;;;;7.05;2.05;;;8.50;99.90;;;;;;5059464;28;20057;-81
2023/12/31 09:54:36;;;;;;;4.30;2.03;;;8.60;99.90;;;;;;5054235;28;20080;-81
2023/12/31 09:57:04;;;;;;;3.72;1.80;;;8.60;99.90;;;;;;5051072;28;20124;-80
2023/12/31 09:59:30;;;;;;;4.63;2.08;;;8.60;99.90;;;;;;5051784;28;20040;-80
2023/12/31 10:01:59;;;;;;;4.70;1.80;;;8.60;99.90;;;;;;5061248;28;20037;-81
2023/12/31 10:04:26;;;;;;;5.97;2.25;;;9.00;99.90;;;;;;5069240;28;20052;-81
2023/12/31 10:06:53;;;;;;;6.47;2.20;;;8.70;99.90;;;;;;5051487;28;20069;-80
2023/12/31 10:09:20;;;;;;;4.55;2.10;;;8.60;99.90;;;;;;5051188;28;20055;-80
2023/12/31 10:11:46;;;;;;;5.28;2.60;;;8.90;99.90;;;;;;5050595;28;20067;-80
2023/12/31 10:14:13;;;;;;;5.10;2.17;;;8.70;99.90;;;;;;5063900;28;20029;-80
2023/12/31 10:16:43;;;;;;;4.10;2.22;;;8.70;99.90;;;;;;5051721;28;20091;-81
2023/12/31 10:19:11;;;;;;;5.78;2.08;;;8.70;99.90;;;;;;5058645;28;20076;-80
2023/12/31 10:21:37;;;;;;;5.75;1.88;;;8.80;99.90;;;;;;5074705;28;20075;-80
2023/12/31 10:24:02;;;;;;;5.35;2.30;;;8.80;99.90;;;;;;5070937;28;20048;-81
2023/12/31 10:26:28;;;;;;;5.50;2.35;;;8.80;99.90;;;;;;5055135;28;20051;-83
2023/12/31 10:28:54;;;;;;;5.32;2.15;;;8.90;99.90;;;;;;5054944;28;20081;-85
2023/12/31 10:31:21;;;;;;;4.07;2.03;;;8.90;99.90;;;;;;5054795;28;20131;-84
2023/12/31 10:33:53;;;;;;;5.75;2.10;;;9.00;99.90;;;;;;5054736;28;20041;-86
2023/12/31 10:36:22;;;;;;;5.90;1.98;;;9.20;99.90;;;;;;5072168;28;20170;-83
2023/12/31 10:38:49;;;;;;;5.72;2.10;;;9.10;99.90;;;;;;5066719;28;20071;-81
2023/12/31 10:41:20;;;;;;;3.88;1.95;;;9.00;99.90;;;;;;5056777;28;20037;-83
2023/12/31 10:43:49;;;;;;;3.95;2.00;;;9.50;99.90;;;;;;5069890;28;20170;-84
2023/12/31 10:46:16;;;;;;;4.93;2.28;;;9.10;99.90;;;;;;5075046;28;20089;-84
2023/12/31 10:49:04;;;;;;;4.35;1.90;;;9.10;99.90;;;;;;5073213;28;20110;-86
2023/12/31 10:51:32;;;;;;;5.93;2.60;;;9.20;99.90;;;;;;5038988;28;20124;-88
2023/12/31 10:54:04;;;;;;;6.40;2.35;;;9.20;99.90;;;;;;5055594;28;20080;-84
2023/12/31 10:56:30;;;;;;;4.20;1.98;;;9.20;99.90;;;;;;5064259;28;20372;-84
2023/12/31 10:58:58;;;;;;;4.75;2.15;;;9.30;99.90;;;;;;5075966;28;20048;-84
2023/12/31 11:01:25;;;;;;;4.07;2.10;;;9.40;99.90;;;;;;5074375;28;20381;-83
2023/12/31 11:03:52;;;;;;;4.18;1.80;;;9.30;99.90;;;;;;5075754;28;20059;-84
2023/12/31 11:06:18;;;;;;;5.00;2.40;;;9.40;99.90;;;;;;5075772;28;20048;-86
2023/12/31 11:08:48;;;;;;;5.15;2.90;;;9.50;99.90;;;;;;5062952;28;20341;-85
2023/12/31 11:11:16;;;;;;;4.60;2.20;;;9.50;99.90;;;;;;5054019;28;20126;-84
2023/12/31 11:13:53;;;;;;;4.82;2.13;;;9.50;99.90;;;;;;5037390;28;20059;-85
2023/12/31 11:16:31;;;;;;;5.50;2.50;;;9.50;99.90;;;;;;5059718;28;20053;-85
2023/12/31 11:19:25;;;;;;;4.85;2.70;;;9.50;99.90;;;;;;5060689;28;20072;-85
2023/12/31 11:21:56;;;;;;;4.18;2.28;;;9.50;99.90;;;;;;5056361;28;20057;-84
2023/12/31 11:24:25;;;;;;;6.30;2.35;;;9.50;99.90;;;;;;5071899;28;20060;-85
2023/12/31 11:27:03;;;;;;;6.43;2.60;;;9.40;99.90;;;;;;5074666;28;20055;-85
2023/12/31 11:29:29;;;;;;;4.90;2.80;;;9.40;99.90;;;;;;5057844;28;20051;-85
2023/12/31 11:31:55;;;;;;;4.90;2.78;;;9.30;99.90;;;;;;5053275;28;20389;-85
2023/12/31 11:34:20;;;;;;;7.38;3.17;;;9.20;99.90;;;;;;5054555;28;20110;-85
2023/12/31 11:36:46;;;;;;;6.65;3.75;;;9.20;99.90;;;;;;5052759;28;20504;-84
2023/12/31 11:39:16;;;;;;;6.28;3.45;;;9.10;99.90;;;;;;5060718;28;20594;-84
2023/12/31 11:41:49;;;;;;;7.03;3.65;;;9.10;99.90;;;;;;5054723;28;20041;-84
2023/12/31 11:44:40;;;;;;;4.72;3.05;;;9.00;99.90;;;;;;5072976;28;20040;-84
2023/12/31 11:47:12;;;;;;;7.50;3.55;;;9.00;99.90;;;;;;5072857;28;20040;-84
2023/12/31 11:50:13;;;;;;;6.68;3.63;;;9.10;99.90;;;;;;5071463;28;20056;-84
2023/12/31 11:52:41;;;;;;;16.08;3.22;;;8.90;99.90;;;;;;5059400;28;20528;-84
2023/12/31 11:55:16;;;;;;;5.55;1.70;;;8.90;99.90;;;;;;5054632;28;20060;-83
2023/12/31 11:57:48;;;;;;;4.10;1.40;;;8.80;99.90;;;;;;5054658;28;20151;-84
2023/12/31 12:00:14;;;;;;;3.35;1.08;;;8.70;99.90;;;;;;5054542;28;20045;-84
2023/12/31 12:02:39;;;;;;;2.33;0.98;;;8.60;99.90;;;;;;5059194;28;20039;-84
2023/12/31 12:05:06;;;;;;;2.97;1.30;;;8.90;99.90;;;;;;5074016;28;20048;-84
2023/12/31 12:07:31;;;;;;;2.67;1.02;;;8.40;99.90;;;;;;5072499;28;20131;-84
2023/12/31 12:09:57;;;;;;;3.55;1.10;;;8.40;99.90;;;;;;5071846;28;20132;-84
2023/12/31 12:12:23;;;;;;;3.15;1.33;;;8.40;99.90;;;;;;5072172;28;20051;-84
2023/12/31 12:14:49;;;;;;;4.13;1.50;;;8.30;99.90;;;;;;5063685;28;20465;-85
2023/12/31 12:17:15;;;;;;;5.88;2.00;;;8.30;99.90;;;;;;5052089;28;20066;-84
2023/12/31 12:19:41;;;;;;;4.95;2.00;;;8.30;99.90;;;;;;5051680;28;20505;-84
2023/12/31 12:22:07;;;;;;;5.03;2.60;;;8.30;99.90;;;;;;5053220;28;20088;-84
2023/12/31 12:24:33;;;;;;;5.40;2.15;;;8.30;99.90;;;;;;5066213;28;20052;-84
2023/12/31 12:27:00;;;;;;;5.40;2.20;;;8.20;99.90;;;;;;5072833;28;20051;-84
2023/12/31 12:29:27;;;;;;;4.95;1.67;;;8.60;99.90;;;;;;5072667;28;20044;-84
2023/12/31 12:31:53;;;;;;;12.38;6.50;;;8.20;99.90;;;;;;5073686;28;20041;-84
2023/12/31 12:34:19;;;;;;;16.65;12.32;;;8.30;99.90;;;;;;5055433;28;20089;-85
2023/12/31 12:36:46;;;;;;;12.18;7.25;;;8.30;99.90;;;;;;5052794;28;20088;-84
2023/12/31 12:39:16;;;;;;;9.65;6.22;;;8.40;99.90;;;;;;5052410;28;20130;-84
2023/12/31 12:41:48;;;;;;;12.10;7.50;;;8.40;99.90;;;;;;5051589;28;20501;-84
2023/12/31 12:44:14;;;;;;;6.88;4.03;;;8.40;99.90;;;;;;5053293;28;20048;-85
2023/12/31 12:46:41;;;;;;;9.75;6.60;;;8.50;99.90;;;;;;5052554;28;20060;-85
2023/12/31 12:49:08;;;;;;;5.32;2.25;;;8.90;99.90;;;;;;5052551;28;20048;-84
2023/12/31 12:51:34;;;;;;;6.10;2.00;;;9.10;99.90;;;;;;5052183;28;20053;-84
2023/12/31 12:54:01;;;;;;;3.92;1.67;;;8.70;99.90;;;;;;5058970;28;20356;-84